createdAt,value
2022-08-02T00:04:29.122Z,100671.66
2022-08-02T00:09:27.649Z,100684.91
2022-08-02T00:14:28.014Z,100709.88
2022-08-02T00:19:26.407Z,100727.78
2022-08-02T00:24:31.186Z,100692.28
2022-08-02T00:29:31.700Z,100698.91
2022-08-02T00:34:37.576Z,100699.19
2022-08-02T00:39:37.804Z,100692.53
2022-08-02T00:44:35.813Z,100686.88
2022-08-02T00:49:40.642Z,100678.84
2022-08-02T00:54:41.324Z,100685.44
2022-08-02T00:59:43.636Z,100724.31
2022-08-02T01:04:43.486Z,100683.88
2022-08-02T01:09:45.537Z,100697.81
2022-08-02T01:14:54.279Z,100692.91
2022-08-02T01:20:35.192Z,100710.22
2022-08-02T01:25:59.207Z,100728.69
2022-08-02T01:30:58.869Z,100743.03
2022-08-02T01:36:01.494Z,100713.38
2022-08-02T01:41:01.354Z,100722.97
2022-08-02T01:46:00.177Z,100742.47
2022-08-02T01:51:02.666Z,100748.81
2022-08-02T01:56:04.743Z,100707.13
2022-08-02T02:01:05.279Z,100721.06
2022-08-02T02:06:05.442Z,100711.28
2022-08-02T02:12:05.224Z,100723.91
2022-08-02T02:16:32.231Z,100754.13
2022-08-02T02:21:35.103Z,100721.34
2022-08-02T02:26:34.660Z,100741.31
2022-08-02T02:31:37.266Z,100766.03
2022-08-02T02:36:35.414Z,100725.97
2022-08-02T02:41:33.497Z,100747.09
2022-08-02T02:46:33.795Z,100729.88
2022-08-02T02:51:35.471Z,100755.47
2022-08-02T02:56:33.190Z,100758.28
2022-08-02T03:01:55.651Z,100746.66
2022-08-02T03:06:52.128Z,100748.06
2022-08-02T03:11:51.442Z,100759.94
2022-08-02T03:16:52.292Z,100732.75
2022-08-02T03:21:57.439Z,100748.16
2022-08-02T03:26:56.339Z,100751.78
2022-08-02T03:31:55.563Z,100774.72
2022-08-02T03:36:56.284Z,100751.28
2022-08-02T03:42:06.066Z,100777.69
2022-08-02T03:47:14.699Z,100764.47
2022-08-02T03:52:16.539Z,100770.34
2022-08-02T03:57:16.708Z,100757.59
2022-08-02T04:02:19.659Z,100773.75
2022-08-02T04:08:33.473Z,100786.34
2022-08-02T04:12:45.068Z,100808.03
2022-08-02T04:17:52.615Z,100811.25
2022-08-02T04:23:02.576Z,100800.25
2022-08-02T04:28:16.598Z,100819.31
2022-08-02T04:33:17.021Z,100781.91
2022-08-02T04:38:32.514Z,100835.41
2022-08-02T04:43:33.399Z,100830.19
2022-08-02T04:48:35.995Z,100789.31
2022-08-02T04:53:38.406Z,100799.41
2022-08-02T04:58:40.366Z,100821.09
2022-08-02T05:03:39.153Z,100816.19
2022-08-02T05:08:37.313Z,100826.09
2022-08-02T05:13:58.734Z,100814.69
2022-08-02T05:19:02.791Z,100827.38
2022-08-02T05:24:03.355Z,100822.22
2022-08-02T05:29:03.434Z,100819.34
2022-08-02T05:34:03.119Z,100851.63
2022-08-02T05:39:05.295Z,100831.81
2022-08-02T05:44:14.384Z,100829.78
2022-08-02T05:49:15.156Z,100834.59
2022-08-02T05:54:21.000Z,100840.50
2022-08-02T05:59:27.427Z,100872.28
2022-08-02T06:04:46.481Z,100840.28
2022-08-02T06:09:45.350Z,100825.84
2022-08-02T06:14:44.060Z,100846.69
2022-08-02T06:19:51.120Z,100877.53
2022-08-02T06:24:53.096Z,100855.13
2022-08-02T06:29:54.582Z,100843.63
2022-08-02T06:34:53.243Z,100862.22
2022-08-02T06:40:07.597Z,100858.00
2022-08-02T06:45:07.554Z,100845.94
2022-08-02T06:50:06.829Z,100875.34
2022-08-02T06:55:09.523Z,100859.84
2022-08-02T07:00:09.664Z,100875.38
2022-08-02T07:05:11.005Z,100866.28
2022-08-02T07:10:11.977Z,100867.09
2022-08-02T07:15:12.833Z,100861.19
2022-08-02T07:20:13.562Z,100868.19
2022-08-02T07:25:13.393Z,100856.09
2022-08-02T07:30:14.954Z,100860.66
2022-08-02T07:35:19.118Z,100885.53
2022-08-02T07:40:19.639Z,100857.75
2022-08-02T07:45:20.157Z,100845.16
2022-08-02T07:50:20.023Z,100894.03
2022-08-02T07:55:22.505Z,100893.81
2022-08-02T08:00:20.728Z,100870.50
2022-08-02T08:05:25.427Z,100861.56
2022-08-02T08:10:23.345Z,100874.09
2022-08-02T08:15:25.025Z,100887.50
2022-08-02T08:20:25.873Z,100877.31
2022-08-02T08:25:28.080Z,100890.84
2022-08-02T08:30:30.552Z,100853.00
2022-08-02T08:35:30.192Z,100871.03
2022-08-02T08:40:29.559Z,100879.25
2022-08-02T08:45:29.499Z,100852.19
2022-08-02T08:50:31.891Z,100854.81
2022-08-02T08:55:33.942Z,100840.50
2022-08-02T09:00:34.342Z,100856.03
2022-08-02T09:05:34.913Z,100863.22
2022-08-02T09:10:54.600Z,100853.69
2022-08-02T09:15:59.090Z,100859.81
2022-08-02T09:21:12.341Z,100854.53
2022-08-02T09:26:13.385Z,100846.69
2022-08-02T09:31:15.271Z,100865.19
2022-08-02T09:36:16.921Z,100843.19
2022-08-02T09:41:33.728Z,100847.91
2022-08-02T09:46:43.676Z,100832.38
2022-08-02T09:51:51.547Z,100859.84
2022-08-02T09:56:55.639Z,100832.25
2022-08-02T10:02:01.714Z,100843.50
2022-08-02T10:07:05.320Z,100838.13
2022-08-02T10:12:04.855Z,100845.16
2022-08-02T10:17:05.401Z,100821.75
2022-08-02T10:22:14.702Z,100829.34
2022-08-02T10:27:21.500Z,100831.50
2022-08-02T10:32:31.843Z,100805.84
2022-08-02T10:37:32.184Z,100810.38
2022-08-02T10:43:01.393Z,100803.13
2022-08-02T10:48:11.889Z,100799.38
2022-08-02T10:53:24.409Z,100781.19
2022-08-02T10:58:29.324Z,100766.56
2022-08-02T11:03:28.375Z,100811.00
2022-08-02T11:08:25.848Z,100781.69
2022-08-02T11:13:26.702Z,100792.03
2022-08-02T11:18:51.193Z,100775.94
2022-08-02T11:23:52.376Z,100784.28
2022-08-02T11:28:55.523Z,100768.91
2022-08-02T11:33:54.988Z,100785.63
2022-08-02T11:39:15.758Z,100794.44
2022-08-02T11:44:16.344Z,100791.91
2022-08-02T11:49:19.205Z,100799.13
2022-08-02T11:54:26.783Z,100773.63
2022-08-02T11:59:26.297Z,100781.25
2022-08-02T12:04:35.462Z,100767.25
2022-08-02T12:09:40.892Z,100774.88
2022-08-02T12:14:46.042Z,100773.38
2022-08-02T12:19:45.774Z,100783.41
2022-08-02T12:24:54.860Z,100756.78
2022-08-02T12:30:07.129Z,100782.59
2022-08-02T12:35:26.625Z,100781.91
2022-08-02T12:40:37.129Z,100775.34
2022-08-02T12:45:57.813Z,100762.25
2022-08-02T12:50:57.376Z,100771.31
2022-08-02T12:56:03.008Z,100782.47
2022-08-02T13:01:04.141Z,100758.09
2022-08-02T13:06:17.389Z,100777.72
2022-08-02T13:11:27.688Z,100778.47
2022-08-02T13:16:30.941Z,100771.00
2022-08-02T13:21:40.736Z,100773.88
2022-08-02T13:26:53.241Z,100774.97
2022-08-02T13:31:54.196Z,100770.41
2022-08-02T13:36:54.002Z,100763.72
2022-08-02T13:41:53.287Z,100765.34
2022-08-02T13:46:53.738Z,100780.00
2022-08-02T13:51:54.323Z,100780.75
2022-08-02T13:56:58.110Z,100789.41
2022-08-02T14:02:03.773Z,100760.44
2022-08-02T14:07:04.502Z,100777.94
2022-08-02T14:12:08.522Z,100792.28
2022-08-02T14:17:07.453Z,100774.16
2022-08-02T14:22:12.427Z,100765.06
2022-08-02T14:27:12.476Z,100773.78
2022-08-02T14:32:13.779Z,100752.28
2022-08-02T14:37:14.641Z,100774.41
2022-08-02T14:42:14.307Z,100786.84
2022-08-02T14:47:15.155Z,100763.47
2022-08-02T14:52:14.879Z,100761.72
2022-08-02T14:57:14.479Z,100762.34
2022-08-02T15:02:16.397Z,100760.13
2022-08-02T15:07:14.480Z,100757.00
2022-08-02T15:12:13.404Z,100768.91
2022-08-02T15:17:12.677Z,100766.59
2022-08-02T15:22:21.003Z,100766.56
2022-08-02T15:27:22.351Z,100745.94
2022-08-02T15:32:23.669Z,100761.41
2022-08-02T15:37:30.852Z,100758.66
2022-08-02T15:42:54.707Z,100766.63
2022-08-02T15:47:54.501Z,100760.09
2022-08-02T15:52:52.994Z,100751.75
2022-08-02T15:57:51.621Z,100747.72
2022-08-02T16:02:54.157Z,100777.56
2022-08-02T16:07:54.473Z,100753.25
2022-08-02T16:13:32.495Z,100771.72
2022-08-02T16:18:31.517Z,100768.16
2022-08-02T16:24:02.098Z,100780.94
2022-08-02T16:29:19.263Z,100776.97
2022-08-02T16:34:19.234Z,100771.56
2022-08-02T16:39:17.726Z,100779.63
2022-08-02T16:44:17.104Z,100777.47
2022-08-02T16:50:06.796Z,100786.06
2022-08-02T16:54:39.543Z,100797.25
2022-08-02T16:59:47.335Z,100794.72
2022-08-02T17:04:57.840Z,100784.97
2022-08-02T17:10:02.614Z,100776.63
2022-08-02T17:15:52.899Z,100799.75
2022-08-02T17:20:31.116Z,100812.69
2022-08-02T17:25:32.039Z,100799.44
2022-08-02T17:30:33.448Z,100815.75
2022-08-02T17:35:52.498Z,100813.25
2022-08-02T17:40:53.788Z,100821.25
2022-08-02T17:46:00.834Z,100802.06
2022-08-02T17:51:04.979Z,100825.47
2022-08-02T17:56:07.012Z,100831.78
2022-08-02T18:01:23.594Z,100819.78
2022-08-02T18:06:26.263Z,100822.56
2022-08-02T18:11:51.750Z,100833.13
2022-08-02T18:17:12.089Z,100850.25
2022-08-02T18:22:17.979Z,100880.25
2022-08-02T18:27:30.056Z,100874.13
2022-08-02T18:33:55.794Z,100867.78
2022-08-02T18:37:57.225Z,100894.50
2022-08-02T18:48:30.063Z,100859.41
2022-08-02T18:53:41.444Z,100870.31
2022-08-02T18:58:44.453Z,100905.25
2022-08-02T19:04:27.506Z,100879.22
2022-08-02T19:09:25.703Z,100903.84
2022-08-02T19:14:28.370Z,100895.31
2022-08-02T19:19:31.680Z,100928.63
2022-08-02T19:24:31.212Z,100927.59
2022-08-02T19:29:42.842Z,100912.69
2022-08-02T19:34:54.753Z,100923.03
2022-08-02T19:39:56.825Z,100920.97
2022-08-02T19:44:57.972Z,100934.25
2022-08-02T19:50:00.236Z,100907.16
2022-08-02T19:56:01.205Z,100921.84
2022-08-02T20:00:33.629Z,100940.50
2022-08-02T20:05:33.354Z,100921.00
2022-08-02T20:10:37.042Z,100893.16
2022-08-02T20:15:55.723Z,100933.50
2022-08-02T20:20:58.560Z,100931.59
2022-08-02T20:25:58.781Z,100928.19
2022-08-02T20:31:07.186Z,100924.19
2022-08-02T20:36:13.156Z,100924.50
2022-08-02T20:41:21.629Z,100920.78
2022-08-02T20:46:22.041Z,100947.75
2022-08-02T20:51:33.414Z,100951.59
2022-08-02T20:56:37.992Z,100940.63
2022-08-02T21:01:37.541Z,100954.28
2022-08-02T21:06:41.200Z,100966.34
2022-08-02T21:11:51.101Z,100950.78
2022-08-02T21:16:52.801Z,100960.13
2022-08-02T21:21:53.222Z,100957.44
2022-08-02T21:26:54.259Z,100979.94
2022-08-02T21:31:55.500Z,100967.03
2022-08-02T21:36:57.670Z,100996.50
2022-08-02T21:41:58.606Z,100966.88
2022-08-02T21:47:00.434Z,101005.66
2022-08-02T21:52:02.590Z,100973.00
2022-08-02T21:57:01.637Z,100983.44
2022-08-02T22:02:12.337Z,100982.56
2022-08-02T22:07:14.383Z,100984.91
2022-08-02T22:12:20.477Z,100988.16
2022-08-02T22:17:51.777Z,100985.50
2022-08-02T22:22:52.591Z,100979.25
2022-08-02T22:28:35.255Z,100984.34
2022-08-02T22:33:33.969Z,101013.75
2022-08-02T22:38:34.444Z,100984.38
2022-08-02T22:43:34.034Z,101008.84
2022-08-02T22:48:40.056Z,100999.84
2022-08-02T22:53:42.900Z,100981.50
2022-08-02T22:58:45.271Z,100862.44
2022-08-02T23:04:08.016Z,100977.97
2022-08-02T23:09:09.355Z,100973.53
2022-08-02T23:14:19.162Z,101001.31
2022-08-02T23:19:40.316Z,100992.50
2022-08-02T23:24:39.629Z,101002.22
2022-08-02T23:29:41.941Z,100988.81
2022-08-02T23:34:44.538Z,101009.81
2022-08-02T23:39:43.649Z,101006.81
2022-08-02T23:44:45.366Z,101011.53
2022-08-02T23:49:43.778Z,100982.41
2022-08-02T23:54:52.683Z,100977.34
2022-08-02T23:59:52.329Z,101000.50
